createdAt,value
2019-03-23T00:00:25.483Z,39.30
2019-03-23T00:02:55.415Z,38.60
2019-03-23T00:05:25.407Z,36.93
2019-03-23T00:07:55.996Z,35.50
2019-03-23T00:10:25.866Z,39.93
2019-03-23T00:12:56.411Z,35.07
2019-03-23T00:15:26.773Z,35.97
2019-03-23T00:17:57.059Z,43.20
2019-03-23T00:20:27.259Z,37.47
2019-03-23T00:22:57.521Z,37.70
2019-03-23T00:25:27.398Z,39.00
2019-03-23T00:27:58.364Z,39.53
2019-03-23T00:30:28.548Z,35.30
2019-03-23T00:32:59.255Z,32.57
2019-03-23T00:35:47.990Z,37.77
2019-03-23T00:38:18.178Z,38.67
2019-03-23T00:40:48.690Z,39.20
2019-03-23T00:43:19.044Z,41.17
2019-03-23T00:45:48.951Z,35.30
2019-03-23T00:48:19.169Z,41.93
2019-03-23T00:50:49.823Z,37.87
2019-03-23T00:53:20.386Z,39.47
2019-03-23T00:55:51.337Z,39.47
2019-03-23T00:58:22.044Z,41.07
2019-03-23T01:00:52.265Z,37.47
2019-03-23T01:03:22.475Z,34.43
2019-03-23T01:05:52.417Z,37.17
2019-03-23T01:08:22.849Z,36.83
2019-03-23T01:11:11.985Z,36.17
2019-03-23T01:13:42.241Z,45.47
2019-03-23T01:16:12.544Z,42.13
2019-03-23T01:18:43.494Z,42.07
2019-03-23T01:21:13.814Z,41.03
2019-03-23T01:23:44.222Z,37.93
2019-03-23T01:26:14.902Z,38.60
2019-03-23T01:28:45.306Z,40.30
2019-03-23T01:31:15.533Z,36.90
2019-03-23T01:33:45.623Z,41.23
2019-03-23T01:36:16.246Z,35.80
2019-03-23T01:38:46.141Z,44.40
2019-03-23T01:41:16.327Z,39.10
2019-03-23T01:43:46.205Z,40.07
2019-03-23T01:46:34.968Z,41.27
2019-03-23T01:49:05.209Z,42.03
2019-03-23T01:51:35.475Z,42.13
2019-03-23T01:54:05.388Z,40.43
2019-03-23T01:56:35.797Z,40.50
2019-03-23T01:59:24.563Z,39.80
2019-03-23T02:01:54.797Z,33.57
2019-03-23T02:04:25.460Z,33.80
2019-03-23T02:06:55.759Z,36.17
2019-03-23T02:09:25.975Z,36.07
2019-03-23T02:11:56.214Z,58.37
2019-03-23T02:14:26.092Z,55.57
2019-03-23T02:16:56.309Z,65.20
2019-03-23T02:19:26.971Z,67.87
2019-03-23T02:21:56.836Z,69.00
2019-03-23T02:24:27.092Z,62.40
2019-03-23T02:26:57.627Z,51.30
2019-03-23T02:29:27.916Z,45.07
2019-03-23T02:31:58.536Z,40.77
2019-03-23T02:34:28.426Z,39.77
2019-03-23T02:36:58.376Z,39.20
2019-03-23T02:39:29.178Z,36.10
2019-03-23T02:41:59.421Z,35.03
2019-03-23T02:44:30.057Z,32.40
2019-03-23T02:47:00.393Z,31.87
2019-03-23T02:49:30.902Z,32.17
2019-03-23T02:52:01.138Z,32.03
2019-03-23T02:54:32.068Z,31.03
2019-03-23T02:57:21.523Z,30.93
2019-03-23T02:59:52.190Z,32.60
2019-03-23T03:02:22.110Z,33.70
2019-03-23T03:04:53.012Z,33.20
2019-03-23T03:07:23.327Z,39.73
2019-03-23T03:09:54.195Z,33.10
2019-03-23T03:12:24.119Z,38.40
2019-03-23T03:14:54.511Z,35.60
2019-03-23T03:17:24.574Z,36.10
2019-03-23T03:19:55.288Z,37.70
2019-03-23T03:22:25.177Z,40.30
2019-03-23T03:24:55.384Z,38.53
2019-03-23T03:27:25.630Z,41.97
2019-03-23T03:29:55.660Z,39.87
2019-03-23T03:32:26.542Z,41.77
2019-03-23T03:34:57.209Z,43.13
2019-03-23T03:37:27.149Z,37.33
2019-03-23T03:39:57.726Z,35.63
2019-03-23T03:42:28.327Z,33.77
2019-03-23T03:44:58.492Z,35.00
2019-03-23T03:47:29.161Z,36.13
2019-03-23T03:49:59.619Z,34.40
2019-03-23T03:52:29.501Z,37.97
2019-03-23T03:54:59.778Z,36.40
2019-03-23T03:57:30.085Z,36.40
2019-03-23T04:00:00.765Z,39.40
2019-03-23T04:02:31.015Z,37.97
2019-03-23T04:05:01.631Z,38.60
2019-03-23T04:07:31.843Z,37.07
2019-03-23T04:10:01.777Z,40.43
2019-03-23T04:12:32.443Z,41.63
2019-03-23T04:15:03.050Z,39.07
2019-03-23T04:17:33.282Z,41.83
2019-03-23T04:20:03.556Z,40.60
2019-03-23T04:22:33.457Z,43.67
2019-03-23T04:25:03.736Z,42.77
2019-03-23T04:27:34.663Z,40.77
2019-03-23T04:30:05.556Z,43.00
2019-03-23T04:32:35.858Z,45.33
2019-03-23T04:35:06.062Z,42.83
2019-03-23T04:37:36.722Z,41.67
2019-03-23T04:40:07.118Z,41.77
2019-03-23T04:42:37.923Z,41.97
2019-03-23T04:45:26.714Z,40.47
2019-03-23T04:48:15.455Z,39.23
2019-03-23T04:50:46.083Z,42.00
2019-03-23T04:53:17.362Z,42.30
2019-03-23T04:55:47.592Z,39.63
2019-03-23T04:58:17.543Z,45.60
2019-03-23T05:00:48.080Z,43.40
2019-03-23T05:03:18.883Z,42.77
2019-03-23T05:05:49.267Z,38.27
2019-03-23T05:08:19.475Z,38.97
2019-03-23T05:10:50.056Z,40.60
2019-03-23T05:13:21.295Z,38.47
2019-03-23T05:15:51.236Z,38.80
2019-03-23T05:18:21.177Z,40.77
2019-03-23T05:20:51.786Z,41.67
2019-03-23T05:23:22.079Z,39.67
2019-03-23T05:25:52.690Z,40.93
2019-03-23T05:28:22.587Z,42.40
2019-03-23T05:30:53.298Z,43.73
2019-03-23T05:33:23.565Z,44.47
2019-03-23T05:35:53.909Z,41.90
2019-03-23T05:38:24.177Z,42.30
2019-03-23T05:40:55.016Z,45.50
2019-03-23T05:43:25.700Z,45.93
2019-03-23T05:45:55.996Z,43.13
2019-03-23T05:48:45.038Z,43.90
2019-03-23T05:51:15.617Z,43.20
2019-03-23T05:53:45.481Z,41.93
2019-03-23T05:56:15.803Z,41.87
2019-03-23T05:58:46.119Z,41.87
2019-03-23T06:01:16.434Z,40.17
2019-03-23T06:03:47.044Z,36.13
2019-03-23T06:06:16.951Z,38.40
2019-03-23T06:08:54.594Z,41.47
2019-03-23T06:11:18.401Z,39.37
2019-03-23T06:13:48.645Z,36.23
2019-03-23T06:16:37.769Z,40.83
2019-03-23T06:19:08.007Z,39.20
2019-03-23T06:21:37.914Z,36.70
2019-03-23T06:24:07.853Z,40.20
2019-03-23T06:26:38.164Z,38.07
2019-03-23T06:29:08.405Z,39.73
2019-03-23T06:31:38.556Z,39.50
2019-03-23T06:34:08.480Z,39.93
2019-03-23T06:36:38.509Z,40.57
2019-03-23T06:39:09.225Z,38.43
2019-03-23T06:41:39.089Z,43.53
2019-03-23T06:44:09.298Z,38.70
2019-03-23T06:46:39.820Z,40.00
2019-03-23T06:49:09.749Z,41.60
2019-03-23T06:51:39.581Z,40.63
2019-03-23T06:54:09.764Z,39.00
2019-03-23T06:56:40.524Z,36.90
2019-03-23T06:59:10.694Z,38.20
2019-03-23T07:01:40.940Z,36.50
2019-03-23T07:04:11.815Z,36.87
2019-03-23T07:06:42.071Z,35.77
2019-03-23T07:09:16.361Z,39.80
2019-03-23T07:11:44.235Z,34.77
2019-03-23T07:14:14.464Z,34.03
2019-03-23T07:16:44.394Z,34.90
2019-03-23T07:19:14.959Z,35.70
2019-03-23T07:21:45.238Z,37.93
2019-03-23T07:24:15.840Z,39.27
2019-03-23T07:26:46.138Z,40.60
2019-03-23T07:29:16.375Z,37.37
2019-03-23T07:31:46.732Z,39.30
2019-03-23T07:34:17.264Z,38.10
2019-03-23T07:36:47.805Z,35.63
2019-03-23T07:39:27.195Z,36.57
2019-03-23T07:41:52.111Z,31.57
2019-03-23T07:44:22.415Z,32.87
2019-03-23T07:46:52.292Z,33.17
2019-03-23T07:49:22.910Z,33.60
2019-03-23T07:51:52.797Z,32.03
2019-03-23T07:54:23.079Z,32.77
2019-03-23T07:56:52.973Z,30.73
2019-03-23T07:59:22.922Z,29.00
2019-03-23T08:01:52.824Z,30.87
2019-03-23T08:04:23.463Z,31.40
2019-03-23T08:06:53.988Z,34.90
2019-03-23T08:09:24.634Z,35.07
2019-03-23T08:11:55.248Z,30.70
2019-03-23T08:14:25.829Z,33.60
2019-03-23T08:16:56.151Z,29.83
2019-03-23T08:19:26.718Z,30.67
2019-03-23T08:21:56.656Z,29.60
2019-03-23T08:24:27.326Z,30.97
2019-03-23T08:26:57.575Z,29.87
2019-03-23T08:29:27.810Z,27.33
2019-03-23T08:31:58.067Z,29.97
2019-03-23T08:34:28.414Z,31.80
2019-03-23T08:36:58.274Z,31.60
2019-03-23T08:39:28.924Z,30.80
2019-03-23T08:41:59.456Z,32.43
2019-03-23T08:44:31.594Z,32.60
2019-03-23T08:47:01.597Z,33.10
2019-03-23T08:49:31.647Z,33.83
2019-03-23T08:52:01.537Z,33.23
2019-03-23T08:54:31.524Z,31.70
2019-03-23T08:57:02.445Z,30.30
2019-03-23T08:59:33.078Z,30.80
2019-03-23T09:02:03.005Z,32.27
2019-03-23T09:04:32.859Z,34.30
2019-03-23T09:07:03.198Z,34.43
2019-03-23T09:09:33.766Z,31.80
2019-03-23T09:12:04.329Z,33.33
2019-03-23T09:14:34.560Z,30.90
2019-03-23T09:17:04.420Z,33.53
2019-03-23T09:19:35.568Z,31.93
2019-03-23T09:22:05.819Z,31.93
2019-03-23T09:24:36.131Z,31.50
2019-03-23T09:27:06.026Z,31.00
2019-03-23T09:29:36.615Z,28.27
2019-03-23T09:32:06.965Z,29.00
2019-03-23T09:34:37.220Z,29.83
2019-03-23T09:37:07.894Z,28.97
2019-03-23T09:39:39.138Z,29.40
2019-03-23T09:42:09.392Z,29.83
2019-03-23T09:44:39.303Z,29.50
2019-03-23T09:47:09.184Z,31.17
2019-03-23T09:49:39.418Z,29.90
2019-03-23T09:52:09.317Z,30.53
2019-03-23T09:54:40.030Z,30.23
2019-03-23T09:57:10.653Z,29.37
2019-03-23T09:59:42.211Z,32.30
2019-03-23T10:02:12.381Z,30.90
2019-03-23T10:04:42.589Z,28.67
2019-03-23T10:07:12.785Z,30.70
2019-03-23T10:09:43.425Z,28.70
2019-03-23T10:12:14.046Z,32.03
2019-03-23T10:14:44.972Z,30.10
2019-03-23T10:17:15.610Z,29.07
2019-03-23T10:19:45.820Z,29.30
2019-03-23T10:22:16.049Z,30.97
2019-03-23T10:24:46.648Z,32.13
2019-03-23T10:27:17.033Z,32.27
2019-03-23T10:29:46.864Z,31.30
2019-03-23T10:32:17.819Z,29.33
2019-03-23T10:34:48.041Z,32.03
2019-03-23T10:37:17.908Z,29.07
2019-03-23T10:39:47.813Z,28.60
2019-03-23T10:42:18.401Z,29.53
2019-03-23T10:44:49.166Z,29.90
2019-03-23T10:47:19.523Z,29.43
2019-03-23T10:49:51.045Z,30.23
2019-03-23T10:52:21.353Z,30.70
2019-03-23T10:54:52.011Z,29.80
2019-03-23T10:57:22.505Z,28.33
2019-03-23T10:59:53.201Z,29.63
2019-03-23T11:02:23.287Z,28.37
2019-03-23T11:04:53.922Z,28.30
2019-03-23T11:07:24.172Z,29.80
2019-03-23T11:09:54.435Z,29.70
2019-03-23T11:12:24.748Z,30.20
2019-03-23T11:14:55.330Z,30.50
2019-03-23T11:17:25.604Z,31.97
2019-03-23T11:19:55.466Z,31.27
2019-03-23T11:22:25.403Z,31.30
2019-03-23T11:24:56.030Z,30.67
2019-03-23T11:27:26.281Z,30.37
2019-03-23T11:29:58.056Z,29.60
2019-03-23T11:32:28.320Z,33.00
2019-03-23T11:34:59.491Z,31.33
2019-03-23T11:37:30.362Z,31.33
2019-03-23T11:40:01.104Z,33.27
2019-03-23T11:42:31.664Z,30.87
2019-03-23T11:45:02.221Z,34.47
2019-03-23T11:47:32.156Z,32.80
2019-03-23T11:50:02.430Z,32.80
2019-03-23T11:52:32.668Z,35.37
2019-03-23T11:55:02.925Z,34.77
2019-03-23T11:57:32.824Z,34.87
2019-03-23T12:00:02.716Z,35.07
2019-03-23T12:02:33.376Z,35.10
2019-03-23T12:05:03.550Z,34.43
2019-03-23T12:07:33.743Z,35.63
2019-03-23T12:10:04.049Z,35.27
2019-03-23T12:12:34.236Z,32.67
2019-03-23T12:15:04.995Z,32.30
2019-03-23T12:17:35.265Z,35.30
2019-03-23T12:20:05.533Z,33.87
2019-03-23T12:22:35.943Z,32.57
2019-03-23T12:25:06.061Z,35.20
2019-03-23T12:27:35.958Z,35.47
2019-03-23T12:30:07.584Z,30.83
2019-03-23T12:32:37.974Z,32.97
2019-03-23T12:35:08.984Z,33.43
2019-03-23T12:37:38.907Z,31.97
2019-03-23T12:40:09.561Z,31.07
2019-03-23T12:42:39.789Z,31.23
2019-03-23T12:45:10.060Z,33.33
2019-03-23T12:47:40.409Z,30.43
2019-03-23T12:50:10.359Z,34.20
2019-03-23T12:52:40.247Z,33.83
2019-03-23T12:55:10.548Z,31.90
2019-03-23T12:57:40.804Z,32.37
2019-03-23T13:00:11.836Z,31.17
2019-03-23T13:02:42.145Z,29.97
2019-03-23T13:05:12.384Z,28.70
2019-03-23T13:07:43.043Z,30.10
2019-03-23T13:10:13.297Z,30.20
2019-03-23T13:12:44.045Z,32.00
2019-03-23T13:15:15.837Z,32.10
2019-03-23T13:17:46.482Z,32.87
2019-03-23T13:20:16.733Z,31.47
2019-03-23T13:22:46.965Z,33.93
2019-03-23T13:25:17.243Z,29.80
2019-03-23T13:27:47.492Z,30.73
2019-03-23T13:30:17.734Z,32.53
2019-03-23T13:32:48.082Z,29.57
2019-03-23T13:35:18.314Z,26.37
2019-03-23T13:37:48.581Z,26.50
2019-03-23T13:40:19.237Z,27.20
2019-03-23T13:42:49.146Z,25.60
2019-03-23T13:45:19.436Z,23.73
2019-03-23T13:47:49.711Z,21.97
2019-03-23T13:50:29.228Z,22.50
2019-03-23T13:52:59.478Z,21.10
2019-03-23T13:55:31.538Z,20.50
2019-03-23T13:58:10.036Z,21.70
2019-03-23T14:00:40.295Z,21.13
2019-03-23T14:03:10.544Z,19.97
2019-03-23T14:05:40.901Z,19.83
2019-03-23T14:08:10.855Z,19.37
2019-03-23T14:10:41.622Z,19.00
2019-03-23T14:13:11.843Z,18.40
2019-03-23T14:15:42.508Z,16.50
2019-03-23T14:18:12.719Z,17.20
2019-03-23T14:20:42.705Z,14.70
2019-03-23T14:23:12.937Z,14.83
2019-03-23T14:25:42.817Z,15.17
2019-03-23T14:28:12.722Z,14.00
2019-03-23T14:30:43.389Z,14.03
2019-03-23T14:33:13.604Z,13.90
2019-03-23T14:35:43.874Z,13.00
2019-03-23T14:38:13.779Z,12.07
2019-03-23T14:40:43.693Z,11.50
2019-03-23T14:43:13.590Z,7.93
2019-03-23T14:45:43.821Z,7.20
2019-03-23T14:48:14.526Z,7.00
2019-03-23T14:50:44.814Z,6.30
2019-03-23T14:53:15.056Z,4.87
2019-03-23T14:55:47.244Z,3.93
2019-03-23T14:58:18.490Z,3.60
2019-03-23T15:00:48.406Z,2.37
2019-03-23T15:03:18.783Z,2.83
2019-03-23T15:05:49.352Z,2.57
2019-03-23T15:08:19.194Z,2.67
2019-03-23T15:10:49.850Z,2.70
2019-03-23T15:13:20.122Z,2.90
2019-03-23T15:15:50.759Z,2.80
2019-03-23T15:18:20.933Z,2.30
2019-03-23T15:20:51.793Z,2.63
2019-03-23T15:23:22.253Z,2.20
2019-03-23T15:25:53.045Z,3.07
2019-03-23T15:28:23.222Z,1.97
2019-03-23T15:30:53.750Z,2.20
2019-03-23T15:33:23.640Z,1.30
2019-03-23T15:35:53.961Z,1.30
2019-03-23T15:38:24.243Z,1.63
2019-03-23T15:40:55.157Z,1.20
2019-03-23T15:43:25.036Z,1.30
2019-03-23T15:45:55.304Z,1.67
2019-03-23T15:48:25.544Z,1.20
2019-03-23T15:50:55.804Z,1.40
2019-03-23T15:53:26.453Z,2.07
2019-03-23T15:55:56.783Z,1.30
2019-03-23T15:58:27.341Z,1.77
2019-03-23T16:00:57.594Z,1.73
2019-03-23T16:03:27.973Z,0.90
2019-03-23T16:05:58.245Z,2.03
2019-03-23T16:08:29.078Z,2.30
2019-03-23T16:10:59.213Z,1.67
2019-03-23T16:13:29.481Z,1.00
2019-03-23T16:15:59.737Z,1.80
2019-03-23T16:18:29.997Z,1.40
2019-03-23T16:21:00.545Z,2.27
2019-03-23T16:23:30.442Z,1.67
2019-03-23T16:26:00.466Z,1.80
2019-03-23T16:28:30.326Z,2.00
2019-03-23T16:31:00.167Z,2.50
2019-03-23T16:33:30.445Z,2.47
2019-03-23T16:36:03.498Z,2.60
2019-03-23T16:38:33.628Z,2.03
2019-03-23T16:41:04.520Z,1.67
2019-03-23T16:43:35.129Z,1.93
2019-03-23T16:46:05.406Z,1.90
2019-03-23T16:48:36.040Z,2.50
2019-03-23T16:51:06.732Z,2.00
2019-03-23T16:53:37.295Z,2.83
2019-03-23T16:56:07.151Z,2.03
2019-03-23T16:58:37.505Z,2.63
2019-03-23T17:01:07.774Z,1.93
2019-03-23T17:03:37.811Z,2.17
2019-03-23T17:06:08.106Z,1.87
2019-03-23T17:08:38.683Z,2.00
2019-03-23T17:11:08.969Z,2.50
2019-03-23T17:13:40.037Z,2.90
2019-03-23T17:16:10.686Z,2.43
2019-03-23T17:18:41.350Z,2.60
2019-03-23T17:21:11.595Z,2.10
2019-03-23T17:23:42.234Z,2.90
2019-03-23T17:26:12.499Z,3.10
2019-03-23T17:28:42.505Z,2.87
2019-03-23T17:31:12.773Z,3.47
2019-03-23T17:33:43.008Z,2.10
2019-03-23T17:36:13.992Z,2.80
2019-03-23T17:38:44.267Z,2.30
2019-03-23T17:41:14.163Z,3.10
2019-03-23T17:43:44.438Z,4.27
2019-03-23T17:46:15.348Z,4.03
2019-03-23T17:48:46.337Z,5.43
2019-03-23T17:51:16.366Z,2.27
2019-03-23T17:53:47.362Z,2.90
2019-03-23T17:56:18.016Z,3.43
2019-03-23T17:58:47.893Z,3.40
2019-03-23T18:01:19.731Z,2.90
2019-03-23T18:03:50.594Z,3.50
2019-03-23T18:06:20.761Z,2.60
2019-03-23T18:08:51.022Z,3.00
2019-03-23T18:11:21.573Z,2.93
2019-03-23T18:14:10.654Z,2.87
2019-03-23T18:16:40.897Z,2.60
2019-03-23T18:19:10.769Z,3.00
2019-03-23T18:21:40.647Z,2.57
2019-03-23T18:24:11.333Z,3.37
2019-03-23T18:26:41.188Z,3.00
2019-03-23T18:29:11.754Z,2.97
2019-03-23T18:31:41.946Z,2.47
2019-03-23T18:34:12.555Z,2.17
2019-03-23T18:36:42.846Z,2.70
2019-03-23T18:39:15.651Z,2.77
2019-03-23T18:41:45.535Z,3.40
2019-03-23T18:44:16.609Z,3.37
2019-03-23T18:46:48.095Z,2.67
2019-03-23T18:49:18.733Z,2.80
2019-03-23T18:51:48.831Z,3.83
2019-03-23T18:54:20.013Z,3.20
2019-03-23T18:56:50.660Z,3.20
2019-03-23T18:59:21.077Z,3.23
2019-03-23T19:01:54.169Z,2.27
2019-03-23T19:04:24.691Z,3.67
2019-03-23T19:06:55.607Z,2.87
2019-03-23T19:09:25.646Z,2.47
2019-03-23T19:11:55.889Z,3.90
2019-03-23T19:14:27.151Z,2.20
2019-03-23T19:16:57.992Z,2.13
2019-03-23T19:19:28.033Z,2.23
2019-03-23T19:21:58.710Z,1.97
2019-03-23T19:24:28.925Z,3.40
2019-03-23T19:26:58.974Z,3.07
2019-03-23T19:29:29.423Z,3.77
2019-03-23T19:32:01.934Z,2.63
2019-03-23T19:34:32.897Z,2.77
2019-03-23T19:37:03.692Z,3.63
2019-03-23T19:39:34.191Z,2.83
2019-03-23T19:42:04.573Z,3.07
2019-03-23T19:44:35.492Z,3.90
2019-03-23T19:47:24.444Z,2.30
2019-03-23T19:49:54.789Z,2.63
2019-03-23T19:52:25.206Z,2.90
2019-03-23T19:54:55.722Z,3.20
2019-03-23T19:57:26.142Z,3.63
2019-03-23T19:59:56.863Z,3.63
2019-03-23T20:02:27.631Z,3.23
2019-03-23T20:04:57.723Z,3.00
2019-03-23T20:07:32.977Z,2.90
2019-03-23T20:10:00.551Z,3.53
2019-03-23T20:12:31.680Z,3.40
2019-03-23T20:15:02.097Z,3.37
2019-03-23T20:17:32.647Z,2.80
2019-03-23T20:20:02.645Z,3.10
2019-03-23T20:22:33.520Z,2.90
2019-03-23T20:25:03.830Z,3.27
2019-03-23T20:27:33.826Z,3.20
2019-03-23T20:30:04.069Z,3.00
2019-03-23T20:32:34.333Z,3.80
2019-03-23T20:35:04.877Z,2.20
2019-03-23T20:37:35.144Z,2.00
2019-03-23T20:40:05.894Z,2.93
2019-03-23T20:42:36.328Z,3.43
2019-03-23T20:45:07.239Z,3.17
2019-03-23T20:47:37.748Z,2.43
2019-03-23T20:50:09.001Z,2.50
2019-03-23T20:52:39.330Z,2.73
2019-03-23T20:55:24.218Z,2.90
2019-03-23T20:57:55.398Z,2.43
2019-03-23T21:00:25.646Z,3.10
2019-03-23T21:03:14.733Z,2.40
2019-03-23T21:05:44.615Z,2.80
2019-03-23T21:08:14.882Z,2.80
2019-03-23T21:10:45.082Z,2.87
2019-03-23T21:13:15.739Z,3.40
2019-03-23T21:15:46.641Z,3.50
2019-03-23T21:18:16.690Z,3.13
2019-03-23T21:20:47.416Z,3.27
2019-03-23T21:23:17.624Z,2.77
2019-03-23T21:25:48.242Z,2.90
2019-03-23T21:28:18.821Z,3.60
2019-03-23T21:30:50.417Z,2.90
2019-03-23T21:33:21.206Z,3.90
2019-03-23T21:35:52.072Z,2.90
2019-03-23T21:38:22.835Z,3.43
2019-03-23T21:40:53.069Z,3.77
2019-03-23T21:43:22.963Z,4.53
2019-03-23T21:45:52.873Z,5.30
2019-03-23T21:48:23.220Z,6.47
2019-03-23T21:50:53.473Z,5.93
2019-03-23T21:53:23.394Z,4.67
2019-03-23T21:55:54.070Z,3.87
2019-03-23T21:58:24.704Z,5.07
2019-03-23T22:00:54.970Z,3.83
2019-03-23T22:03:25.945Z,4.30
2019-03-23T22:05:56.214Z,3.90
2019-03-23T22:08:26.850Z,5.23
2019-03-23T22:10:56.739Z,4.30
2019-03-23T22:13:27.016Z,4.20
2019-03-23T22:15:57.292Z,4.10
2019-03-23T22:18:27.574Z,4.80
2019-03-23T22:20:57.497Z,4.40
2019-03-23T22:23:27.998Z,3.37
2019-03-23T22:25:57.908Z,4.97
2019-03-23T22:28:28.115Z,4.83
2019-03-23T22:30:58.666Z,3.90
2019-03-23T22:33:28.617Z,4.83
2019-03-23T22:35:59.020Z,4.20
2019-03-23T22:38:29.623Z,3.87
2019-03-23T22:41:00.265Z,4.30
2019-03-23T22:43:30.524Z,3.13
2019-03-23T22:46:01.473Z,4.13
2019-03-23T22:48:31.357Z,4.40
2019-03-23T22:51:01.226Z,4.17
2019-03-23T22:53:31.520Z,3.63
2019-03-23T22:56:01.616Z,4.50
2019-03-23T22:58:32.811Z,4.87
2019-03-23T23:01:02.920Z,4.37
2019-03-23T23:03:33.160Z,5.10
2019-03-23T23:06:03.788Z,4.47
2019-03-23T23:08:33.839Z,4.40
2019-03-23T23:11:03.762Z,4.17
2019-03-23T23:13:34.116Z,4.73
2019-03-23T23:16:04.361Z,4.33
2019-03-23T23:18:34.557Z,5.00
2019-03-23T23:21:04.463Z,4.30
2019-03-23T23:23:34.901Z,4.47
2019-03-23T23:26:04.785Z,4.40
2019-03-23T23:28:34.798Z,3.77
2019-03-23T23:31:05.007Z,4.10
2019-03-23T23:33:34.929Z,3.70
2019-03-23T23:36:05.404Z,3.70
2019-03-23T23:38:36.108Z,4.13
2019-03-23T23:41:06.422Z,4.33
2019-03-23T23:43:36.695Z,3.50
2019-03-23T23:46:07.350Z,3.00
2019-03-23T23:48:38.554Z,3.70
2019-03-23T23:51:09.176Z,4.83
2019-03-23T23:53:39.708Z,3.57
2019-03-23T23:56:10.017Z,3.13
2019-03-23T23:58:59.368Z,3.60
